Terminal Aerodrome Forecast
Issued by NWS

Home | Current Version | Previous Version | Graphics & Text | Print | Product List | Glossary On
Versions: 1 2 3 4 5 6 7 8 9 10 11 12 13 14 15 16 17 18 19 20 21 22 23 24
000
FTUS43 KLSX 200827 AAB
TAFSUS
TAF AMD
KSUS 200827Z 2008/2106 VRB04KT 1SM BR BKN005
      TEMPO 2008/2012 1/4SM FG VV003
     FM201500 14011KT P6SM BKN120
     FM201800 15013G22KT P6SM BKN120
     FM210000 17010KT 6SM -SHRA BKN050=

USA.gov is the U.S. government's official web portal to all federal, state and local government web resources and services.